LFRG/DOL METAR and TAF weather

Enter ICAO airport designator
Station Type Date Time Source
LFRG METAR 2022/01/26 13:00 UTC NOAA

LFRG 261300Z AUTO 23003KT 210V270 5000 BR OVC020 05/03 Q1034 TEMPO BKN008


Station Type Date Time Source
LFRG Decoded METAR 2022/01/26 13:00 UTC NOAA

Station name not available
Jan 26, 2022 - 08:00 AM EST / 2022.01.26 1300 UTC
Wind: from the SW (230 degrees) at 3 MPH (3 KT) (direction variable):0
Visibility: 3 mile(s):0
Sky conditions: overcast
Weather: mist
Temperature: 41 F (5 C)
Dew Point: 37 F (3 C)
Relative Humidity: 86%
Pressure (altimeter): 30.53 in. Hg (1034 hPa)
ob: LFRG 261300Z AUTO 23003KT 210V270 5000 BR OVC020 05/03 Q1034 TEMPO BKN008
cycle: 13

Station Type Date Time Source
LFRG TAF 2014/12/22 18:42 UTC NOAA

TAF
AMD TAF
AMD LFRG 221837Z 2218/2221 25015KT 9999 OVC015
TEMPO 2218/2221 BKN007 PROB30
TEMPO 2218/2221 25015G25KT 4000 DZ BKN003

Example: see airport list